sensor_id;sensor_type;location;lat;lon;timestamp;P1;durP1;ratioP1;P2;durP2;ratioP2
62848;SDS011;48941;49.516;8.286;2024-03-08T00:00:12;23.75;;;14.02;;
62848;SDS011;48941;49.516;8.286;2024-03-08T00:02:43;27.65;;;14.43;;
62848;SDS011;48941;49.516;8.286;2024-03-08T00:05:12;25.90;;;13.32;;
62848;SDS011;48941;49.516;8.286;2024-03-08T00:07:41;23.92;;;13.90;;
62848;SDS011;48941;49.516;8.286;2024-03-08T00:10:12;27.10;;;14.45;;
62848;SDS011;48941;49.516;8.286;2024-03-08T00:12:42;23.25;;;13.65;;
62848;SDS011;48941;49.516;8.286;2024-03-08T00:15:12;26.67;;;13.85;;
62848;SDS011;48941;49.516;8.286;2024-03-08T00:17:43;30.88;;;14.52;;
62848;SDS011;48941;49.516;8.286;2024-03-08T00:20:12;26.27;;;13.48;;
62848;SDS011;48941;49.516;8.286;2024-03-08T00:22:41;23.15;;;13.75;;
62848;SDS011;48941;49.516;8.286;2024-03-08T00:25:09;23.00;;;14.15;;
62848;SDS011;48941;49.516;8.286;2024-03-08T00:27:40;23.23;;;13.55;;
62848;SDS011;48941;49.516;8.286;2024-03-08T00:30:09;25.02;;;13.85;;
62848;SDS011;48941;49.516;8.286;2024-03-08T00:32:40;26.40;;;13.70;;
62848;SDS011;48941;49.516;8.286;2024-03-08T00:35:08;26.60;;;13.65;;
62848;SDS011;48941;49.516;8.286;2024-03-08T00:37:36;24.05;;;13.60;;
62848;SDS011;48941;49.516;8.286;2024-03-08T00:40:04;26.30;;;13.57;;
62848;SDS011;48941;49.516;8.286;2024-03-08T00:42:36;27.13;;;14.40;;
62848;SDS011;48941;49.516;8.286;2024-03-08T00:45:06;23.70;;;14.20;;
62848;SDS011;48941;49.516;8.286;2024-03-08T00:47:34;23.90;;;13.80;;
62848;SDS011;48941;49.516;8.286;2024-03-08T00:50:02;27.80;;;14.27;;
62848;SDS011;48941;49.516;8.286;2024-03-08T00:52:31;26.23;;;13.65;;
62848;SDS011;48941;49.516;8.286;2024-03-08T00:55:01;23.63;;;13.45;;
62848;SDS011;48941;49.516;8.286;2024-03-08T00:57:29;25.85;;;13.35;;
62848;SDS011;48941;49.516;8.286;2024-03-08T00:59:57;27.67;;;13.57;;
62848;SDS011;48941;49.516;8.286;2024-03-08T01:02:26;24.40;;;14.18;;
62848;SDS011;48941;49.516;8.286;2024-03-08T01:04:55;24.73;;;13.85;;
62848;SDS011;48941;49.516;8.286;2024-03-08T01:07:23;23.90;;;14.15;;
62848;SDS011;48941;49.516;8.286;2024-03-08T01:09:50;24.38;;;14.18;;
62848;SDS011;48941;49.516;8.286;2024-03-08T01:12:18;23.60;;;14.23;;
62848;SDS011;48941;49.516;8.286;2024-03-08T01:14:46;26.33;;;13.80;;
62848;SDS011;48941;49.516;8.286;2024-03-08T01:17:14;23.08;;;13.63;;
62848;SDS011;48941;49.516;8.286;2024-03-08T01:19:43;26.50;;;14.55;;
62848;SDS011;48941;49.516;8.286;2024-03-08T01:22:11;25.50;;;14.73;;
62848;SDS011;48941;49.516;8.286;2024-03-08T01:24:39;24.25;;;14.18;;
62848;SDS011;48941;49.516;8.286;2024-03-08T01:27:07;27.33;;;14.38;;
62848;SDS011;48941;49.516;8.286;2024-03-08T01:29:35;25.08;;;14.05;;
62848;SDS011;48941;49.516;8.286;2024-03-08T01:32:04;23.80;;;13.70;;
62848;SDS011;48941;49.516;8.286;2024-03-08T01:34:32;25.95;;;13.55;;
62848;SDS011;48941;49.516;8.286;2024-03-08T01:37:01;27.33;;;13.88;;
62848;SDS011;48941;49.516;8.286;2024-03-08T01:39:29;25.77;;;13.85;;
62848;SDS011;48941;49.516;8.286;2024-03-08T01:41:58;25.30;;;14.20;;
62848;SDS011;48941;49.516;8.286;2024-03-08T01:44:27;28.85;;;14.65;;
62848;SDS011;48941;49.516;8.286;2024-03-08T01:46:54;27.73;;;13.68;;
62848;SDS011;48941;49.516;8.286;2024-03-08T01:49:22;27.08;;;13.35;;
62848;SDS011;48941;49.516;8.286;2024-03-08T01:51:52;24.02;;;13.57;;
62848;SDS011;48941;49.516;8.286;2024-03-08T01:54:24;24.88;;;14.32;;
62848;SDS011;48941;49.516;8.286;2024-03-08T01:56:52;25.20;;;14.18;;
62848;SDS011;48941;49.516;8.286;2024-03-08T01:59:20;26.95;;;14.10;;
62848;SDS011;48941;49.516;8.286;2024-03-08T02:01:49;22.45;;;12.95;;
62848;SDS011;48941;49.516;8.286;2024-03-08T02:04:18;25.50;;;14.70;;
62848;SDS011;48941;49.516;8.286;2024-03-08T02:06:47;24.70;;;13.85;;
62848;SDS011;48941;49.516;8.286;2024-03-08T02:09:15;23.00;;;13.52;;
62848;SDS011;48941;49.516;8.286;2024-03-08T02:11:45;23.98;;;13.13;;
62848;SDS011;48941;49.516;8.286;2024-03-08T02:14:13;23.85;;;12.90;;
62848;SDS011;48941;49.516;8.286;2024-03-08T02:16:41;27.63;;;14.95;;
62848;SDS011;48941;49.516;8.286;2024-03-08T02:19:09;25.17;;;13.55;;
62848;SDS011;48941;49.516;8.286;2024-03-08T02:21:38;26.08;;;13.65;;
62848;SDS011;48941;49.516;8.286;2024-03-08T02:24:06;21.65;;;13.55;;
62848;SDS011;48941;49.516;8.286;2024-03-08T02:26:34;25.17;;;13.65;;
62848;SDS011;48941;49.516;8.286;2024-03-08T02:29:03;24.08;;;13.68;;
62848;SDS011;48941;49.516;8.286;2024-03-08T02:31:31;24.45;;;14.20;;
62848;SDS011;48941;49.516;8.286;2024-03-08T02:33:59;24.45;;;13.55;;
62848;SDS011;48941;49.516;8.286;2024-03-08T02:36:27;24.48;;;13.40;;
62848;SDS011;48941;49.516;8.286;2024-03-08T02:38:56;26.15;;;13.93;;
62848;SDS011;48941;49.516;8.286;2024-03-08T02:41:24;24.42;;;13.15;;
62848;SDS011;48941;49.516;8.286;2024-03-08T02:43:52;24.17;;;13.82;;
62848;SDS011;48941;49.516;8.286;2024-03-08T02:46:21;26.42;;;13.63;;
62848;SDS011;48941;49.516;8.286;2024-03-08T02:48:49;23.65;;;13.43;;
62848;SDS011;48941;49.516;8.286;2024-03-08T02:51:17;26.63;;;13.68;;
62848;SDS011;48941;49.516;8.286;2024-03-08T02:53:46;26.48;;;13.70;;
62848;SDS011;48941;49.516;8.286;2024-03-08T02:56:16;23.48;;;13.23;;
62848;SDS011;48941;49.516;8.286;2024-03-08T02:58:45;25.60;;;12.90;;
62848;SDS011;48941;49.516;8.286;2024-03-08T03:01:15;24.27;;;13.52;;
62848;SDS011;48941;49.516;8.286;2024-03-08T03:03:43;25.23;;;13.50;;
62848;SDS011;48941;49.516;8.286;2024-03-08T03:06:10;23.35;;;12.63;;
62848;SDS011;48941;49.516;8.286;2024-03-08T03:08:38;22.13;;;12.63;;
62848;SDS011;48941;49.516;8.286;2024-03-08T03:11:10;21.50;;;11.90;;
62848;SDS011;48941;49.516;8.286;2024-03-08T03:13:41;23.67;;;13.38;;
62848;SDS011;48941;49.516;8.286;2024-03-08T03:16:16;21.73;;;12.38;;
62848;SDS011;48941;49.516;8.286;2024-03-08T03:18:46;20.38;;;11.88;;
62848;SDS011;48941;49.516;8.286;2024-03-08T03:21:14;22.83;;;12.45;;
62848;SDS011;48941;49.516;8.286;2024-03-08T03:23:43;22.67;;;12.60;;
62848;SDS011;48941;49.516;8.286;2024-03-08T03:26:11;22.10;;;12.20;;
62848;SDS011;48941;49.516;8.286;2024-03-08T03:28:40;22.73;;;11.80;;
62848;SDS011;48941;49.516;8.286;2024-03-08T03:31:09;21.80;;;11.90;;
62848;SDS011;48941;49.516;8.286;2024-03-08T03:33:40;20.63;;;11.90;;
62848;SDS011;48941;49.516;8.286;2024-03-08T03:36:08;21.92;;;12.52;;
62848;SDS011;48941;49.516;8.286;2024-03-08T03:38:36;22.48;;;11.68;;
62848;SDS011;48941;49.516;8.286;2024-03-08T03:41:04;18.75;;;10.68;;
62848;SDS011;48941;49.516;8.286;2024-03-08T03:43:36;20.52;;;11.60;;
62848;SDS011;48941;49.516;8.286;2024-03-08T03:46:06;20.05;;;11.68;;
62848;SDS011;48941;49.516;8.286;2024-03-08T03:48:37;22.58;;;12.48;;
62848;SDS011;48941;49.516;8.286;2024-03-08T03:51:05;22.23;;;12.10;;
62848;SDS011;48941;49.516;8.286;2024-03-08T03:53:33;21.25;;;12.38;;
62848;SDS011;48941;49.516;8.286;2024-03-08T03:56:02;21.10;;;12.00;;
62848;SDS011;48941;49.516;8.286;2024-03-08T03:58:33;21.83;;;11.70;;
62848;SDS011;48941;49.516;8.286;2024-03-08T04:01:01;24.48;;;12.75;;
62848;SDS011;48941;49.516;8.286;2024-03-08T04:03:31;22.98;;;12.57;;
62848;SDS011;48941;49.516;8.286;2024-03-08T04:05:59;26.38;;;12.60;;
62848;SDS011;48941;49.516;8.286;2024-03-08T04:08:27;24.40;;;13.07;;
62848;SDS011;48941;49.516;8.286;2024-03-08T04:10:55;27.05;;;12.98;;
62848;SDS011;48941;49.516;8.286;2024-03-08T04:13:22;21.50;;;12.30;;
62848;SDS011;48941;49.516;8.286;2024-03-08T04:15:50;22.05;;;12.80;;
62848;SDS011;48941;49.516;8.286;2024-03-08T04:18:18;24.23;;;12.13;;
62848;SDS011;48941;49.516;8.286;2024-03-08T04:20:47;22.92;;;12.35;;
62848;SDS011;48941;49.516;8.286;2024-03-08T04:23:15;21.35;;;12.00;;
62848;SDS011;48941;49.516;8.286;2024-03-08T04:25:44;22.42;;;12.77;;
62848;SDS011;48941;49.516;8.286;2024-03-08T04:28:11;22.05;;;12.32;;
62848;SDS011;48941;49.516;8.286;2024-03-08T04:30:39;22.05;;;12.98;;
62848;SDS011;48941;49.516;8.286;2024-03-08T04:33:07;21.80;;;12.18;;
62848;SDS011;48941;49.516;8.286;2024-03-08T04:35:36;20.63;;;12.13;;
62848;SDS011;48941;49.516;8.286;2024-03-08T04:38:05;23.33;;;12.38;;
62848;SDS011;48941;49.516;8.286;2024-03-08T04:40:33;23.67;;;12.90;;
62848;SDS011;48941;49.516;8.286;2024-03-08T04:43:01;22.98;;;12.05;;
62848;SDS011;48941;49.516;8.286;2024-03-08T04:45:30;24.35;;;11.52;;
62848;SDS011;48941;49.516;8.286;2024-03-08T04:47:57;24.80;;;12.23;;
62848;SDS011;48941;49.516;8.286;2024-03-08T04:50:25;25.30;;;13.07;;
62848;SDS011;48941;49.516;8.286;2024-03-08T04:52:55;26.10;;;13.43;;
62848;SDS011;48941;49.516;8.286;2024-03-08T04:55:24;23.60;;;12.40;;
62848;SDS011;48941;49.516;8.286;2024-03-08T04:57:52;23.73;;;13.30;;
62848;SDS011;48941;49.516;8.286;2024-03-08T05:00:20;21.38;;;12.45;;
62848;SDS011;48941;49.516;8.286;2024-03-08T05:02:48;23.30;;;13.25;;
62848;SDS011;48941;49.516;8.286;2024-03-08T05:05:19;25.55;;;13.15;;
62848;SDS011;48941;49.516;8.286;2024-03-08T05:07:49;22.60;;;12.55;;
62848;SDS011;48941;49.516;8.286;2024-03-08T05:10:17;24.13;;;13.48;;
62848;SDS011;48941;49.516;8.286;2024-03-08T05:12:46;28.55;;;13.63;;
62848;SDS011;48941;49.516;8.286;2024-03-08T05:15:13;26.15;;;14.00;;
62848;SDS011;48941;49.516;8.286;2024-03-08T05:17:41;26.10;;;13.70;;
62848;SDS011;48941;49.516;8.286;2024-03-08T05:20:10;26.50;;;13.25;;
62848;SDS011;48941;49.516;8.286;2024-03-08T05:22:39;30.08;;;15.27;;
62848;SDS011;48941;49.516;8.286;2024-03-08T05:25:08;30.40;;;14.32;;
62848;SDS011;48941;49.516;8.286;2024-03-08T05:27:36;24.75;;;13.55;;
62848;SDS011;48941;49.516;8.286;2024-03-08T05:30:06;26.80;;;13.95;;
62848;SDS011;48941;49.516;8.286;2024-03-08T05:32:40;26.40;;;13.20;;
62848;SDS011;48941;49.516;8.286;2024-03-08T05:35:11;26.50;;;15.02;;
62848;SDS011;48941;49.516;8.286;2024-03-08T05:37:38;25.27;;;14.02;;
62848;SDS011;48941;49.516;8.286;2024-03-08T05:40:07;29.38;;;14.23;;
62848;SDS011;48941;49.516;8.286;2024-03-08T05:42:42;29.90;;;14.07;;
62848;SDS011;48941;49.516;8.286;2024-03-08T05:45:11;25.83;;;14.05;;
62848;SDS011;48941;49.516;8.286;2024-03-08T05:47:40;27.55;;;15.05;;
62848;SDS011;48941;49.516;8.286;2024-03-08T05:50:09;25.20;;;13.55;;
62848;SDS011;48941;49.516;8.286;2024-03-08T05:52:37;23.48;;;13.30;;
62848;SDS011;48941;49.516;8.286;2024-03-08T05:55:06;27.80;;;15.05;;
62848;SDS011;48941;49.516;8.286;2024-03-08T05:57:36;27.65;;;14.60;;
62848;SDS011;48941;49.516;8.286;2024-03-08T06:00:06;28.35;;;14.77;;
62848;SDS011;48941;49.516;8.286;2024-03-08T06:02:36;28.70;;;14.30;;
62848;SDS011;48941;49.516;8.286;2024-03-08T06:07:36;30.50;;;14.43;;
62848;SDS011;48941;49.516;8.286;2024-03-08T06:10:07;27.38;;;13.70;;
62848;SDS011;48941;49.516;8.286;2024-03-08T06:12:38;26.13;;;14.57;;
62848;SDS011;48941;49.516;8.286;2024-03-08T06:15:08;27.95;;;15.57;;
62848;SDS011;48941;49.516;8.286;2024-03-08T06:17:42;28.70;;;15.20;;
62848;SDS011;48941;49.516;8.286;2024-03-08T06:20:11;28.10;;;14.93;;
62848;SDS011;48941;49.516;8.286;2024-03-08T06:22:40;30.20;;;15.23;;
62848;SDS011;48941;49.516;8.286;2024-03-08T06:25:08;30.05;;;14.23;;
62848;SDS011;48941;49.516;8.286;2024-03-08T06:27:37;27.23;;;14.68;;
62848;SDS011;48941;49.516;8.286;2024-03-08T06:30:05;29.20;;;14.48;;
62848;SDS011;48941;49.516;8.286;2024-03-08T06:32:36;27.55;;;14.48;;
62848;SDS011;48941;49.516;8.286;2024-03-08T06:35:06;30.38;;;15.63;;
62848;SDS011;48941;49.516;8.286;2024-03-08T06:37:34;27.05;;;14.48;;
62848;SDS011;48941;49.516;8.286;2024-03-08T06:40:02;27.95;;;15.48;;
62848;SDS011;48941;49.516;8.286;2024-03-08T06:42:30;32.58;;;16.33;;
62848;SDS011;48941;49.516;8.286;2024-03-08T06:45:01;25.45;;;13.65;;
62848;SDS011;48941;49.516;8.286;2024-03-08T06:47:31;27.10;;;13.70;;
62848;SDS011;48941;49.516;8.286;2024-03-08T06:50:00;28.20;;;14.95;;
62848;SDS011;48941;49.516;8.286;2024-03-08T06:52:29;33.72;;;14.82;;
62848;SDS011;48941;49.516;8.286;2024-03-08T06:54:57;27.38;;;14.73;;
62848;SDS011;48941;49.516;8.286;2024-03-08T06:57:26;31.80;;;14.98;;
62848;SDS011;48941;49.516;8.286;2024-03-08T06:59:55;33.95;;;14.90;;
62848;SDS011;48941;49.516;8.286;2024-03-08T07:02:23;29.70;;;15.30;;
62848;SDS011;48941;49.516;8.286;2024-03-08T07:04:51;25.90;;;14.73;;
62848;SDS011;48941;49.516;8.286;2024-03-08T07:07:20;29.17;;;14.88;;
62848;SDS011;48941;49.516;8.286;2024-03-08T07:09:49;30.67;;;14.80;;
62848;SDS011;48941;49.516;8.286;2024-03-08T07:12:17;31.08;;;14.90;;
62848;SDS011;48941;49.516;8.286;2024-03-08T07:14:47;32.92;;;15.32;;
62848;SDS011;48941;49.516;8.286;2024-03-08T07:17:15;29.05;;;14.77;;
62848;SDS011;48941;49.516;8.286;2024-03-08T07:19:42;31.10;;;14.73;;
62848;SDS011;48941;49.516;8.286;2024-03-08T07:22:11;29.15;;;14.60;;
62848;SDS011;48941;49.516;8.286;2024-03-08T07:24:39;28.05;;;14.77;;
62848;SDS011;48941;49.516;8.286;2024-03-08T07:27:23;26.80;;;15.38;;
62848;SDS011;48941;49.516;8.286;2024-03-08T07:29:51;27.40;;;15.40;;
62848;SDS011;48941;49.516;8.286;2024-03-08T07:32:34;29.27;;;15.57;;
62848;SDS011;48941;49.516;8.286;2024-03-08T07:35:02;30.30;;;14.88;;
62848;SDS011;48941;49.516;8.286;2024-03-08T07:37:30;26.08;;;15.10;;
62848;SDS011;48941;49.516;8.286;2024-03-08T07:39:58;29.70;;;15.18;;
62848;SDS011;48941;49.516;8.286;2024-03-08T07:42:28;31.58;;;14.45;;
62848;SDS011;48941;49.516;8.286;2024-03-08T07:44:56;25.25;;;14.88;;
62848;SDS011;48941;49.516;8.286;2024-03-08T07:47:24;30.67;;;15.68;;
62848;SDS011;48941;49.516;8.286;2024-03-08T07:49:53;28.48;;;15.15;;
62848;SDS011;48941;49.516;8.286;2024-03-08T07:52:21;26.58;;;14.98;;
62848;SDS011;48941;49.516;8.286;2024-03-08T07:54:49;24.27;;;13.43;;
62848;SDS011;48941;49.516;8.286;2024-03-08T07:57:17;26.63;;;13.77;;
62848;SDS011;48941;49.516;8.286;2024-03-08T07:59:46;23.27;;;13.48;;
62848;SDS011;48941;49.516;8.286;2024-03-08T08:02:15;22.55;;;13.30;;
62848;SDS011;48941;49.516;8.286;2024-03-08T08:04:43;25.52;;;13.90;;
62848;SDS011;48941;49.516;8.286;2024-03-08T08:07:11;23.98;;;13.73;;
62848;SDS011;48941;49.516;8.286;2024-03-08T08:09:41;22.30;;;13.65;;
62848;SDS011;48941;49.516;8.286;2024-03-08T08:12:09;24.15;;;13.65;;
62848;SDS011;48941;49.516;8.286;2024-03-08T08:14:38;24.23;;;14.07;;
62848;SDS011;48941;49.516;8.286;2024-03-08T08:17:09;22.35;;;13.70;;
62848;SDS011;48941;49.516;8.286;2024-03-08T08:19:40;24.85;;;13.80;;
62848;SDS011;48941;49.516;8.286;2024-03-08T08:22:08;24.90;;;14.18;;
62848;SDS011;48941;49.516;8.286;2024-03-08T08:24:36;25.17;;;13.68;;
62848;SDS011;48941;49.516;8.286;2024-03-08T08:27:04;22.52;;;13.68;;
62848;SDS011;48941;49.516;8.286;2024-03-08T08:29:32;24.33;;;13.85;;
62848;SDS011;48941;49.516;8.286;2024-03-08T08:32:01;26.58;;;13.60;;
62848;SDS011;48941;49.516;8.286;2024-03-08T08:34:31;23.92;;;13.20;;
62848;SDS011;48941;49.516;8.286;2024-03-08T08:37:00;23.38;;;13.80;;
62848;SDS011;48941;49.516;8.286;2024-03-08T08:39:28;25.02;;;14.25;;
62848;SDS011;48941;49.516;8.286;2024-03-08T08:41:56;24.55;;;13.57;;
62848;SDS011;48941;49.516;8.286;2024-03-08T08:44:24;22.88;;;13.23;;
62848;SDS011;48941;49.516;8.286;2024-03-08T08:46:52;22.77;;;13.50;;
62848;SDS011;48941;49.516;8.286;2024-03-08T08:49:28;22.67;;;12.60;;
62848;SDS011;48941;49.516;8.286;2024-03-08T08:51:58;22.65;;;13.10;;
62848;SDS011;48941;49.516;8.286;2024-03-08T08:54:37;20.85;;;11.93;;
62848;SDS011;48941;49.516;8.286;2024-03-08T08:57:05;22.67;;;13.60;;
62848;SDS011;48941;49.516;8.286;2024-03-08T08:59:34;22.75;;;12.77;;
62848;SDS011;48941;49.516;8.286;2024-03-08T09:02:02;23.42;;;13.52;;
62848;SDS011;48941;49.516;8.286;2024-03-08T09:04:31;21.80;;;13.30;;
62848;SDS011;48941;49.516;8.286;2024-03-08T09:07:00;22.05;;;13.55;;
62848;SDS011;48941;49.516;8.286;2024-03-08T09:09:28;24.15;;;14.07;;
62848;SDS011;48941;49.516;8.286;2024-03-08T09:11:56;22.38;;;13.73;;
62848;SDS011;48941;49.516;8.286;2024-03-08T09:14:24;24.13;;;13.70;;
62848;SDS011;48941;49.516;8.286;2024-03-08T09:16:53;26.40;;;13.25;;
62848;SDS011;48941;49.516;8.286;2024-03-08T09:19:21;24.70;;;13.70;;
62848;SDS011;48941;49.516;8.286;2024-03-08T09:21:52;22.83;;;13.02;;
62848;SDS011;48941;49.516;8.286;2024-03-08T09:24:22;24.92;;;13.52;;
62848;SDS011;48941;49.516;8.286;2024-03-08T09:26:50;22.30;;;14.20;;
62848;SDS011;48941;49.516;8.286;2024-03-08T09:29:18;22.75;;;12.98;;
62848;SDS011;48941;49.516;8.286;2024-03-08T09:31:46;25.77;;;13.90;;
62848;SDS011;48941;49.516;8.286;2024-03-08T09:34:14;22.75;;;13.57;;
62848;SDS011;48941;49.516;8.286;2024-03-08T09:36:50;26.33;;;14.77;;
62848;SDS011;48941;49.516;8.286;2024-03-08T09:39:18;25.45;;;14.25;;
62848;SDS011;48941;49.516;8.286;2024-03-08T09:41:51;24.30;;;14.02;;
62848;SDS011;48941;49.516;8.286;2024-03-08T09:44:21;23.08;;;14.07;;
62848;SDS011;48941;49.516;8.286;2024-03-08T09:46:54;22.40;;;13.93;;
62848;SDS011;48941;49.516;8.286;2024-03-08T09:49:22;24.52;;;13.77;;
62848;SDS011;48941;49.516;8.286;2024-03-08T09:51:51;21.80;;;13.25;;
62848;SDS011;48941;49.516;8.286;2024-03-08T09:54:19;24.17;;;13.55;;
62848;SDS011;48941;49.516;8.286;2024-03-08T09:56:53;24.38;;;13.20;;
62848;SDS011;48941;49.516;8.286;2024-03-08T09:59:21;22.75;;;14.30;;
62848;SDS011;48941;49.516;8.286;2024-03-08T10:02:16;24.40;;;14.63;;
62848;SDS011;48941;49.516;8.286;2024-03-08T10:04:45;25.97;;;13.90;;
62848;SDS011;48941;49.516;8.286;2024-03-08T10:07:14;21.77;;;13.57;;
62848;SDS011;48941;49.516;8.286;2024-03-08T10:09:42;24.75;;;14.48;;
62848;SDS011;48941;49.516;8.286;2024-03-08T10:12:18;19.20;;;12.40;;
62848;SDS011;48941;49.516;8.286;2024-03-08T10:14:47;23.45;;;13.77;;
62848;SDS011;48941;49.516;8.286;2024-03-08T10:17:15;22.73;;;13.45;;
62848;SDS011;48941;49.516;8.286;2024-03-08T10:19:49;23.20;;;13.20;;
62848;SDS011;48941;49.516;8.286;2024-03-08T10:22:19;21.10;;;13.40;;
62848;SDS011;48941;49.516;8.286;2024-03-08T10:24:48;22.73;;;13.43;;
62848;SDS011;48941;49.516;8.286;2024-03-08T10:27:16;26.05;;;13.70;;
62848;SDS011;48941;49.516;8.286;2024-03-08T10:29:47;23.60;;;14.02;;
62848;SDS011;48941;49.516;8.286;2024-03-08T10:32:15;23.75;;;13.13;;
62848;SDS011;48941;49.516;8.286;2024-03-08T10:34:43;21.75;;;13.95;;
62848;SDS011;48941;49.516;8.286;2024-03-08T10:37:12;20.27;;;13.55;;
62848;SDS011;48941;49.516;8.286;2024-03-08T10:39:46;24.02;;;12.98;;
62848;SDS011;48941;49.516;8.286;2024-03-08T10:42:20;25.75;;;14.45;;
62848;SDS011;48941;49.516;8.286;2024-03-08T10:44:58;24.33;;;13.48;;
62848;SDS011;48941;49.516;8.286;2024-03-08T10:47:32;20.48;;;13.45;;
62848;SDS011;48941;49.516;8.286;2024-03-08T10:50:08;19.00;;;12.43;;
62848;SDS011;48941;49.516;8.286;2024-03-08T10:52:48;22.65;;;14.25;;
62848;SDS011;48941;49.516;8.286;2024-03-08T10:55:17;25.60;;;14.27;;
62848;SDS011;48941;49.516;8.286;2024-03-08T10:57:48;21.27;;;13.60;;
62848;SDS011;48941;49.516;8.286;2024-03-08T11:00:17;23.75;;;13.25;;
62848;SDS011;48941;49.516;8.286;2024-03-08T11:02:53;24.65;;;13.18;;
62848;SDS011;48941;49.516;8.286;2024-03-08T11:05:36;21.60;;;13.68;;
62848;SDS011;48941;49.516;8.286;2024-03-08T11:08:16;18.90;;;12.55;;
62848;SDS011;48941;49.516;8.286;2024-03-08T11:10:47;23.23;;;13.70;;
62848;SDS011;48941;49.516;8.286;2024-03-08T11:13:35;19.92;;;12.95;;
62848;SDS011;48941;49.516;8.286;2024-03-08T11:16:06;24.08;;;14.02;;
62848;SDS011;48941;49.516;8.286;2024-03-08T11:18:36;23.13;;;13.27;;
62848;SDS011;48941;49.516;8.286;2024-03-08T11:21:06;19.38;;;13.15;;
62848;SDS011;48941;49.516;8.286;2024-03-08T11:23:39;23.65;;;13.18;;
62848;SDS011;48941;49.516;8.286;2024-03-08T11:26:17;22.50;;;14.00;;
62848;SDS011;48941;49.516;8.286;2024-03-08T11:28:47;19.95;;;12.93;;
62848;SDS011;48941;49.516;8.286;2024-03-08T11:31:25;21.45;;;13.05;;
62848;SDS011;48941;49.516;8.286;2024-03-08T11:33:54;22.05;;;14.00;;
62848;SDS011;48941;49.516;8.286;2024-03-08T11:36:23;22.23;;;13.65;;
62848;SDS011;48941;49.516;8.286;2024-03-08T11:38:52;18.08;;;12.50;;
62848;SDS011;48941;49.516;8.286;2024-03-08T11:41:22;20.63;;;13.63;;
62848;SDS011;48941;49.516;8.286;2024-03-08T11:44:02;20.80;;;13.00;;
62848;SDS011;48941;49.516;8.286;2024-03-08T11:46:33;20.08;;;13.30;;
62848;SDS011;48941;49.516;8.286;2024-03-08T11:49:01;23.50;;;13.32;;
62848;SDS011;48941;49.516;8.286;2024-03-08T11:51:30;19.85;;;12.77;;
62848;SDS011;48941;49.516;8.286;2024-03-08T11:54:00;20.23;;;12.98;;
62848;SDS011;48941;49.516;8.286;2024-03-08T11:56:28;21.02;;;13.65;;
62848;SDS011;48941;49.516;8.286;2024-03-08T11:58:58;21.08;;;13.05;;
62848;SDS011;48941;49.516;8.286;2024-03-08T12:01:29;20.77;;;13.57;;
62848;SDS011;48941;49.516;8.286;2024-03-08T12:03:58;20.70;;;13.07;;
62848;SDS011;48941;49.516;8.286;2024-03-08T12:06:26;20.30;;;13.43;;
62848;SDS011;48941;49.516;8.286;2024-03-08T12:09:03;19.95;;;13.05;;
62848;SDS011;48941;49.516;8.286;2024-03-08T12:11:31;21.55;;;12.98;;
62848;SDS011;48941;49.516;8.286;2024-03-08T12:14:01;18.70;;;13.15;;
62848;SDS011;48941;49.516;8.286;2024-03-08T12:16:30;19.88;;;13.07;;
62848;SDS011;48941;49.516;8.286;2024-03-08T12:18:59;21.38;;;12.90;;
62848;SDS011;48941;49.516;8.286;2024-03-08T12:21:27;19.17;;;12.68;;
62848;SDS011;48941;49.516;8.286;2024-03-08T12:24:02;19.35;;;13.05;;
62848;SDS011;48941;49.516;8.286;2024-03-08T12:26:31;20.38;;;13.15;;
62848;SDS011;48941;49.516;8.286;2024-03-08T12:29:14;19.58;;;13.02;;
62848;SDS011;48941;49.516;8.286;2024-03-08T12:31:45;19.35;;;12.43;;
62848;SDS011;48941;49.516;8.286;2024-03-08T12:34:14;20.65;;;13.52;;
62848;SDS011;48941;49.516;8.286;2024-03-08T12:36:45;19.33;;;13.00;;
62848;SDS011;48941;49.516;8.286;2024-03-08T12:39:18;18.15;;;12.18;;
62848;SDS011;48941;49.516;8.286;2024-03-08T12:41:53;20.50;;;13.27;;
62848;SDS011;48941;49.516;8.286;2024-03-08T12:44:23;17.52;;;12.07;;
62848;SDS011;48941;49.516;8.286;2024-03-08T12:46:54;21.30;;;13.05;;
62848;SDS011;48941;49.516;8.286;2024-03-08T12:49:22;19.52;;;12.57;;
62848;SDS011;48941;49.516;8.286;2024-03-08T12:51:51;20.98;;;12.88;;
62848;SDS011;48941;49.516;8.286;2024-03-08T12:54:20;18.55;;;12.48;;
62848;SDS011;48941;49.516;8.286;2024-03-08T12:56:50;18.52;;;12.50;;
62848;SDS011;48941;49.516;8.286;2024-03-08T12:59:20;17.98;;;12.00;;
62848;SDS011;48941;49.516;8.286;2024-03-08T13:01:50;21.92;;;13.23;;
62848;SDS011;48941;49.516;8.286;2024-03-08T13:04:21;19.02;;;13.07;;
62848;SDS011;48941;49.516;8.286;2024-03-08T13:06:49;18.80;;;12.77;;
62848;SDS011;48941;49.516;8.286;2024-03-08T13:09:20;22.65;;;12.75;;
62848;SDS011;48941;49.516;8.286;2024-03-08T13:11:50;18.27;;;12.30;;
62848;SDS011;48941;49.516;8.286;2024-03-08T13:14:20;19.08;;;12.70;;
62848;SDS011;48941;49.516;8.286;2024-03-08T13:16:48;23.35;;;13.18;;
62848;SDS011;48941;49.516;8.286;2024-03-08T13:19:17;20.75;;;12.65;;
62848;SDS011;48941;49.516;8.286;2024-03-08T13:21:49;21.92;;;12.82;;
62848;SDS011;48941;49.516;8.286;2024-03-08T13:24:17;17.90;;;12.93;;
62848;SDS011;48941;49.516;8.286;2024-03-08T13:26:47;19.48;;;13.45;;
62848;SDS011;48941;49.516;8.286;2024-03-08T13:29:16;19.20;;;13.90;;
62848;SDS011;48941;49.516;8.286;2024-03-08T13:31:45;20.90;;;13.20;;
62848;SDS011;48941;49.516;8.286;2024-03-08T13:34:13;25.75;;;13.27;;
62848;SDS011;48941;49.516;8.286;2024-03-08T13:36:42;20.05;;;13.95;;
62848;SDS011;48941;49.516;8.286;2024-03-08T13:39:12;18.27;;;12.82;;
62848;SDS011;48941;49.516;8.286;2024-03-08T13:41:42;21.20;;;13.85;;
62848;SDS011;48941;49.516;8.286;2024-03-08T13:44:11;24.75;;;12.48;;
62848;SDS011;48941;49.516;8.286;2024-03-08T13:46:39;19.88;;;13.55;;
62848;SDS011;48941;49.516;8.286;2024-03-08T13:49:08;22.13;;;13.57;;
62848;SDS011;48941;49.516;8.286;2024-03-08T13:51:37;20.30;;;13.00;;
62848;SDS011;48941;49.516;8.286;2024-03-08T13:54:06;22.30;;;13.18;;
62848;SDS011;48941;49.516;8.286;2024-03-08T13:56:35;22.35;;;13.45;;
62848;SDS011;48941;49.516;8.286;2024-03-08T13:59:03;23.15;;;14.13;;
62848;SDS011;48941;49.516;8.286;2024-03-08T14:01:31;18.10;;;13.00;;
62848;SDS011;48941;49.516;8.286;2024-03-08T14:04:02;16.92;;;11.88;;
62848;SDS011;48941;49.516;8.286;2024-03-08T14:06:30;20.73;;;13.02;;
62848;SDS011;48941;49.516;8.286;2024-03-08T14:08:58;18.83;;;12.70;;
62848;SDS011;48941;49.516;8.286;2024-03-08T14:11:27;20.95;;;12.15;;
62848;SDS011;48941;49.516;8.286;2024-03-08T14:13:57;19.85;;;12.80;;
62848;SDS011;48941;49.516;8.286;2024-03-08T14:16:25;18.10;;;12.57;;
62848;SDS011;48941;49.516;8.286;2024-03-08T14:18:53;19.65;;;13.30;;
62848;SDS011;48941;49.516;8.286;2024-03-08T14:21:21;19.98;;;12.70;;
62848;SDS011;48941;49.516;8.286;2024-03-08T14:23:48;19.73;;;13.35;;
62848;SDS011;48941;49.516;8.286;2024-03-08T14:26:18;22.45;;;12.93;;
62848;SDS011;48941;49.516;8.286;2024-03-08T14:28:47;19.27;;;12.60;;
62848;SDS011;48941;49.516;8.286;2024-03-08T14:31:19;20.00;;;13.27;;
62848;SDS011;48941;49.516;8.286;2024-03-08T14:33:52;25.25;;;13.07;;
62848;SDS011;48941;49.516;8.286;2024-03-08T14:36:19;20.70;;;12.90;;